EDNY Airport Information

Runway Information
Runway 06 Length 7729 ft width 148 ft
Elevation 1334 ft Threshold 885 ft Heading 60
Runway 24 Length 7729 ft Width 148 ft
Elevation 1367 ft Threshold 675 ft Heading 240
Airport Frequencies
Type APP Name ZURICH ARR Frequency 119.925 MHZ
Type ATIS Name ATIS Frequency 129.6 MHZ
Type INFO Name INFO Frequency 122.5 MHZ
Type RDO Name MUNCHEN IN Frequency 126.95 MHZ
Type TWR Name TWR Frequency 120.075 MHZ
Airport Navaids
Type NDB Name Friedrichshafen Frequency 473 KHZ
Type DME Name Friedrichshafen Frequency 112600 KHZ
Airport Weather Information & NOTAM
ADDS - METARS form results

(1712 UTC 18 November 2018)
Data provider http://aviationweather.gov/metar/data/
 
METAR text: EDNY 181650Z 23001KT 9999 FEW034 00/M02 Q1018
Conditions at: EDNY (FRIEDRICHSHAFEN , DE) observed 1650 UTC 18 November 2018
Temperature: 0.0°C (32°F)
Dewpoint: -2.0°C (28°F) [RH = 86%]
Pressure (altimeter): 30.06 inches Hg (1018.0 mb)
Winds: from the SW (230 degrees) at 1 MPH (1 knots; 0.5 m/s)
Visibility: 6 or more miles (10+ km)
Ceiling: at least 12,000 feet AGL
Clouds: few clouds at 3400 feet AGL
Weather: no significant weather observed at this time

METAR text: EDNY 181620Z VRB02KT CAVOK 02/M02 Q1019
Conditions at: EDNY (FRIEDRICHSHAFEN , DE) observed 1620 UTC 18 November 2018
Temperature: 2.0°C (36°F)
Dewpoint: -2.0°C (28°F) [RH = 75%]
Pressure (altimeter): 30.09 inches Hg (1019.0 mb)
Winds: variable direction winds at 2 MPH (2 knots; 1.0 m/s)
Visibility: 6 or more miles (10+ km)
Ceiling: ceiling and visibility are OK
Clouds: unknown
Weather: no significant weather observed at this time

Forecast for: EDNY (FRIEDRICHSHAFEN , DE)
Text: TAF EDNY 181100Z 1812/1912 02008KT 9999 BKN015
Forecast period: 1200 UTC 18 November 2018 to 0600 UTC 19 November 2018
Forecast type: FROM: standard forecast or significant change
Winds: from the NNE (20 degrees) at 9 MPH (8 knots; 4.1 m/s)
Visibility: 6 or more miles 10+ km)
Ceiling: 1500 feet AGL
Clouds: broken clouds at 1500 feet AGL
Weather: no significant weather forecast for this period
Text: TEMPO 1900/1906 BKN012
Forecast period: 0000 to 0600 UTC 19 November 2018
Forecast type: TEMPORARY: The following changes expected for less than half the time period
Visibility: missing
Ceiling: 1200 feet AGL
Clouds: broken clouds at 1200 feet AGL
Weather: no significant weather forecast for this period
Text: BECMG 1906/1908 05015G25KT
Forecast period: 0600 to 1200 UTC 19 November 2018
Forecast type: BECOMING: Conditions expected to become as follows by 0800 UTC 19 November 2018
Winds: from the NE (50 degrees) at 17 MPH (15 knots; 7.7 m/s)
gusting to 29 MPH (25 knots; 12.9 m/s)
Visibility: 6 or more miles 10+ km)
Ceiling: 1500 feet AGL
Clouds: broken clouds at 1500 feet AGL
Weather: no significant weather forecast for this period